createdAt,value
2019-02-16T15:39:11.390Z,0.00
2019-02-16T15:40:20.946Z,174.38
2019-02-16T15:41:21.132Z,168.75
2019-02-16T15:42:21.331Z,157.50
2019-02-16T15:43:22.578Z,163.12
2019-02-16T15:44:22.679Z,163.12
2019-02-16T15:45:22.809Z,151.88
2019-02-16T15:46:22.939Z,151.88
2019-02-16T15:47:23.289Z,151.88
2019-02-16T15:48:26.706Z,157.50
2019-02-16T15:49:23.678Z,157.50
2019-02-16T15:50:23.900Z,151.88
2019-02-16T15:51:24.046Z,140.62
2019-02-16T15:52:24.272Z,129.38
2019-02-16T15:53:24.381Z,129.38
2019-02-16T15:54:24.643Z,129.38
2019-02-16T15:55:24.791Z,123.75
2019-02-16T15:56:24.954Z,123.75
2019-02-16T15:57:25.099Z,118.12
2019-02-16T15:58:26.340Z,112.50
2019-02-16T15:59:25.427Z,101.25
2019-02-16T16:00:26.266Z,90.00
2019-02-16T16:01:25.937Z,84.38
2019-02-16T16:02:25.998Z,78.75
2019-02-16T16:03:26.212Z,78.75
2019-02-16T16:04:26.350Z,78.75
2019-02-16T16:05:26.481Z,73.12
2019-02-16T16:06:26.756Z,73.12
2019-02-16T16:07:26.769Z,73.12
2019-02-16T16:08:27.111Z,67.50
2019-02-16T16:09:27.295Z,67.50
2019-02-16T16:10:27.528Z,67.50
2019-02-16T16:11:27.639Z,61.88
2019-02-16T16:12:27.885Z,61.88
2019-02-16T16:13:28.103Z,56.25
2019-02-16T16:14:28.247Z,56.25
2019-02-16T16:15:28.430Z,56.25
2019-02-16T16:16:28.467Z,50.62
2019-02-16T16:17:28.710Z,50.62
2019-02-16T16:18:28.963Z,50.62
2019-02-16T16:19:29.072Z,45.00
2019-02-16T16:20:30.454Z,45.00
2019-02-16T16:21:29.439Z,39.38
2019-02-16T16:22:29.943Z,39.38
2019-02-16T16:23:29.570Z,39.38
2019-02-16T16:24:29.666Z,33.75
2019-02-16T16:25:31.550Z,33.75
2019-02-16T16:26:30.712Z,33.75
2019-02-16T16:27:30.738Z,28.12
2019-02-16T16:28:30.526Z,28.12
2019-02-16T16:29:30.741Z,22.50
2019-02-16T16:30:30.694Z,22.50
2019-02-16T16:31:30.938Z,22.50
2019-02-16T16:32:31.167Z,22.50
2019-02-16T16:33:31.400Z,16.88
2019-02-16T16:34:31.516Z,16.88
2019-02-16T16:35:31.740Z,16.88
2019-02-16T16:36:31.888Z,11.25
2019-02-16T16:37:32.028Z,11.25
2019-02-16T16:38:32.192Z,11.25
2019-02-16T16:39:32.470Z,11.25
2019-02-16T16:40:33.286Z,11.25
2019-02-16T16:41:32.699Z,5.62
2019-02-16T16:42:33.072Z,5.62
2019-02-16T16:43:33.965Z,5.62
2019-02-16T16:44:33.130Z,5.62
2019-02-16T16:45:33.324Z,5.62
2019-02-16T16:46:33.520Z,5.62
2019-02-16T16:47:33.741Z,0.00
2019-02-16T16:48:33.998Z,0.00
2019-02-16T16:49:34.081Z,0.00
2019-02-16T16:50:34.298Z,0.00
2019-02-16T16:51:34.503Z,0.00
2019-02-16T16:52:34.706Z,0.00
2019-02-16T16:53:34.863Z,0.00
2019-02-16T16:54:35.060Z,0.00
2019-02-16T16:55:35.234Z,0.00
2019-02-16T16:56:35.433Z,0.00
2019-02-16T16:57:35.599Z,0.00
2019-02-16T16:58:35.752Z,0.00
2019-02-16T16:59:35.937Z,0.00
2019-02-16T17:00:36.108Z,0.00
2019-02-16T17:01:36.290Z,0.00
2019-02-16T17:02:36.465Z,0.00
2019-02-16T17:17:00.889Z,0.00
2019-02-16T17:18:03.110Z,0.00
2019-02-16T17:19:01.870Z,0.00
2019-02-16T17:20:03.562Z,0.00
2019-02-16T17:21:03.683Z,0.00
2019-02-16T17:22:02.111Z,0.00
2019-02-16T17:23:02.165Z,0.00
2019-02-16T17:24:02.381Z,0.00
2019-02-16T17:25:02.507Z,0.00
2019-02-16T17:26:03.131Z,0.00
2019-02-16T17:27:02.813Z,0.00
2019-02-16T17:28:03.122Z,0.00
2019-02-16T17:29:03.200Z,0.00
2019-02-16T17:30:03.487Z,0.00
2019-02-16T17:31:03.697Z,0.00
2019-02-16T17:32:03.757Z,0.00
2019-02-16T17:33:04.013Z,0.00
2019-02-16T17:34:04.294Z,0.00
2019-02-16T17:35:04.463Z,0.00
2019-02-16T17:36:04.627Z,0.00
2019-02-16T17:37:04.945Z,0.00
2019-02-16T17:38:05.190Z,0.00
2019-02-16T17:39:05.234Z,0.00
2019-02-16T17:40:05.560Z,0.00
2019-02-16T17:41:05.623Z,0.00
2019-02-16T17:42:05.812Z,0.00
2019-02-16T17:43:05.843Z,0.00
2019-02-16T17:44:06.020Z,0.00
2019-02-16T17:45:06.219Z,0.00
2019-02-16T17:46:06.382Z,0.00
2019-02-16T17:47:06.616Z,0.00
2019-02-16T17:48:06.690Z,0.00
2019-02-16T17:49:06.877Z,0.00
2019-02-16T17:50:07.051Z,0.00
2019-02-16T17:51:07.250Z,0.00
2019-02-16T17:52:07.470Z,0.00
2019-02-16T17:53:07.676Z,0.00
2019-02-16T17:54:08.765Z,0.00
2019-02-16T17:55:09.072Z,0.00
2019-02-16T17:56:08.204Z,0.00
2019-02-16T17:57:08.367Z,0.00
2019-02-16T17:58:08.535Z,0.00
2019-02-16T17:59:08.709Z,0.00
2019-02-16T18:30:37.649Z,0.00
2019-02-16T18:31:40.290Z,0.00
2019-02-16T18:32:39.859Z,0.00
2019-02-16T18:33:40.649Z,0.00
2019-02-16T18:34:41.041Z,0.00
2019-02-16T18:35:41.208Z,0.00
2019-02-16T18:36:40.304Z,0.00
2019-02-16T18:37:40.461Z,0.00
2019-02-16T18:38:41.073Z,0.00
2019-02-16T18:39:40.288Z,0.00
2019-02-16T18:40:40.406Z,0.00
2019-02-16T18:41:40.561Z,0.00
2019-02-16T18:42:40.840Z,0.00
2019-02-16T18:43:40.961Z,0.00
2019-02-16T18:44:41.731Z,0.00
2019-02-16T18:45:41.286Z,0.00
2019-02-16T18:46:41.458Z,0.00
2019-02-16T18:47:41.672Z,0.00
2019-02-16T18:48:41.844Z,0.00
2019-02-16T18:49:42.036Z,0.00
2019-02-16T18:50:42.168Z,0.00
2019-02-16T18:51:42.412Z,0.00
2019-02-16T18:52:42.445Z,0.00
2019-02-16T18:53:42.725Z,0.00
2019-02-16T18:54:42.909Z,0.00
2019-02-16T18:55:43.106Z,0.00
2019-02-16T18:56:43.324Z,0.00
2019-02-16T18:57:43.581Z,0.00
2019-02-16T18:58:43.825Z,0.00
2019-02-16T18:59:43.870Z,0.00
2019-02-16T20:00:39.388Z,0.00
2019-02-16T20:01:41.123Z,0.00
2019-02-16T20:02:40.963Z,0.00
2019-02-16T20:03:41.406Z,0.00
2019-02-16T20:04:40.840Z,0.00
2019-02-16T20:05:41.060Z,0.00
2019-02-16T20:06:41.311Z,0.00
2019-02-16T20:07:41.324Z,0.00
2019-02-16T20:08:41.616Z,0.00
2019-02-16T20:09:41.801Z,0.00
2019-02-16T20:10:42.084Z,0.00
2019-02-16T20:11:42.217Z,0.00
2019-02-16T20:12:42.449Z,0.00
2019-02-16T20:13:42.779Z,0.00
2019-02-16T20:14:42.759Z,0.00
2019-02-16T20:15:43.012Z,0.00
2019-02-16T20:16:43.292Z,0.00
2019-02-16T20:17:43.430Z,0.00
2019-02-16T20:18:43.634Z,0.00
2019-02-16T20:19:43.759Z,0.00
2019-02-16T20:20:43.972Z,0.00
2019-02-16T20:21:44.176Z,0.00
2019-02-16T20:22:44.356Z,0.00
2019-02-16T20:23:44.567Z,0.00
2019-02-16T20:24:44.714Z,0.00
2019-02-16T20:25:45.344Z,0.00
2019-02-16T20:26:45.073Z,0.00
2019-02-16T20:27:45.335Z,0.00
2019-02-16T20:28:45.437Z,0.00
2019-02-16T20:29:45.612Z,0.00
2019-02-16T20:30:45.751Z,0.00
2019-02-16T20:31:45.925Z,0.00
2019-02-16T20:32:46.017Z,0.00
2019-02-16T20:33:46.236Z,0.00
2019-02-16T20:34:46.407Z,0.00
2019-02-16T20:35:46.548Z,0.00
2019-02-16T20:36:46.685Z,0.00
2019-02-16T20:37:46.826Z,0.00
2019-02-16T20:38:47.005Z,0.00
2019-02-16T20:39:47.144Z,0.00
2019-02-16T20:40:47.327Z,0.00
2019-02-16T20:41:47.577Z,0.00
2019-02-16T20:42:47.991Z,0.00
2019-02-16T20:43:47.903Z,0.00
2019-02-16T20:44:48.062Z,0.00
2019-02-16T20:45:48.242Z,0.00
2019-02-16T20:46:48.425Z,0.00
2019-02-16T20:47:48.568Z,0.00
2019-02-16T20:48:48.757Z,0.00
2019-02-16T20:49:49.005Z,0.00
2019-02-16T20:50:49.856Z,0.00
2019-02-16T20:51:49.642Z,0.00
2019-02-16T20:52:49.537Z,0.00
2019-02-16T20:53:49.937Z,0.00
2019-02-16T20:54:50.032Z,0.00
2019-02-16T20:55:50.060Z,0.00
2019-02-16T20:56:50.402Z,0.00
2019-02-16T20:57:50.488Z,0.00
2019-02-16T20:58:50.782Z,0.00
2019-02-16T20:59:50.919Z,0.00
2019-02-16T21:18:09.175Z,0.00
2019-02-16T21:19:08.768Z,0.00
2019-02-16T21:20:08.981Z,0.00
2019-02-16T21:21:09.090Z,0.00
2019-02-16T21:22:10.824Z,0.00
2019-02-16T21:23:09.437Z,0.00
2019-02-16T21:24:09.588Z,0.00
2019-02-16T21:25:09.781Z,0.00
2019-02-16T21:26:09.979Z,0.00
2019-02-16T21:27:11.353Z,0.00
2019-02-16T21:28:11.563Z,0.00
2019-02-16T21:29:12.824Z,0.00
2019-02-16T21:30:12.986Z,0.00
2019-02-16T21:31:12.056Z,0.00
2019-02-16T21:32:12.300Z,0.00
2019-02-16T21:33:12.328Z,0.00
2019-02-16T21:34:12.624Z,0.00
2019-02-16T21:35:12.643Z,0.00
2019-02-16T21:36:12.847Z,0.00
2019-02-16T21:37:13.008Z,0.00
2019-02-16T21:38:13.109Z,0.00
2019-02-16T21:39:13.328Z,0.00
2019-02-16T21:40:13.710Z,0.00
2019-02-16T21:41:13.688Z,0.00
2019-02-16T21:42:13.838Z,0.00
2019-02-16T21:43:14.117Z,0.00
2019-02-16T21:44:14.681Z,0.00
2019-02-16T21:45:14.563Z,0.00
2019-02-16T21:46:14.696Z,0.00
2019-02-16T21:47:14.859Z,0.00
2019-02-16T21:48:15.049Z,0.00
2019-02-16T21:49:15.199Z,0.00
2019-02-16T21:50:15.513Z,0.00
2019-02-16T21:51:15.579Z,0.00
2019-02-16T21:52:15.768Z,0.00
2019-02-16T21:53:21.494Z,0.00
2019-02-16T21:54:18.067Z,0.00
2019-02-16T21:55:16.390Z,0.00
2019-02-16T21:56:16.526Z,0.00
2019-02-16T21:57:16.578Z,0.00
2019-02-16T21:58:16.863Z,0.00
2019-02-16T21:59:19.137Z,0.00
